createdAt,value
2023-03-22T00:00:22.571Z,23.02
2023-03-22T00:00:53.994Z,23.02
2023-03-22T00:01:25.563Z,23.03
2023-03-22T00:01:56.969Z,23.02
2023-03-22T00:02:28.572Z,23.02
2023-03-22T00:03:00.111Z,23.01
2023-03-22T00:03:31.755Z,23.00
2023-03-22T00:04:03.236Z,23.00
2023-03-22T00:04:34.797Z,23.00
2023-03-22T00:05:06.296Z,23.02
2023-03-22T00:05:37.811Z,22.98
2023-03-22T00:06:09.260Z,23.00
2023-03-22T00:06:40.819Z,23.00
2023-03-22T00:07:12.222Z,23.05
2023-03-22T00:07:43.715Z,23.02
2023-03-22T00:08:15.134Z,23.02
2023-03-22T00:08:46.560Z,23.03
2023-03-22T00:09:17.990Z,23.05
2023-03-22T00:09:49.408Z,23.01
2023-03-22T00:10:20.830Z,23.01
2023-03-22T00:10:52.256Z,23.01
2023-03-22T00:11:23.779Z,23.03
2023-03-22T00:11:55.196Z,23.03
2023-03-22T00:12:26.631Z,23.02
2023-03-22T00:12:58.078Z,23.02
2023-03-22T00:13:33.365Z,23.00
2023-03-22T00:14:05.825Z,22.99
2023-03-22T00:14:37.222Z,23.05
2023-03-22T00:15:08.676Z,23.06
2023-03-22T00:15:40.249Z,23.09
2023-03-22T00:16:11.790Z,23.11
2023-03-22T00:16:43.302Z,23.08
2023-03-22T00:17:14.773Z,23.09
2023-03-22T00:17:46.295Z,23.06
2023-03-22T00:18:17.684Z,23.04
2023-03-22T00:18:49.087Z,23.05
2023-03-22T00:19:20.576Z,23.01
2023-03-22T00:19:52.013Z,23.04
2023-03-22T00:20:23.524Z,23.04
2023-03-22T00:20:55.242Z,23.03
2023-03-22T00:21:26.664Z,23.03
2023-03-22T00:21:58.138Z,23.02
2023-03-22T00:22:29.667Z,23.04
2023-03-22T00:23:01.042Z,23.04
2023-03-22T00:23:32.515Z,23.06
2023-03-22T00:24:03.943Z,23.07
2023-03-22T00:24:35.350Z,23.09
2023-03-22T00:25:06.833Z,23.08
2023-03-22T00:25:38.297Z,23.04
2023-03-22T00:26:09.708Z,23.05
2023-03-22T00:26:41.111Z,23.07
2023-03-22T00:27:12.604Z,23.08
2023-03-22T00:27:44.059Z,23.10
2023-03-22T00:28:15.484Z,23.07
2023-03-22T00:28:46.969Z,23.04
2023-03-22T00:29:18.398Z,23.04
2023-03-22T00:29:49.914Z,23.04
2023-03-22T00:30:21.352Z,23.03
2023-03-22T00:30:52.740Z,23.07
2023-03-22T00:31:24.373Z,23.07
2023-03-22T00:31:55.951Z,23.06
2023-03-22T00:32:27.450Z,23.05
2023-03-22T00:32:59.049Z,23.04
2023-03-22T00:33:30.726Z,23.05
2023-03-22T00:34:02.237Z,23.05
2023-03-22T00:34:33.639Z,23.06
2023-03-22T00:35:05.109Z,23.02
2023-03-22T00:35:36.589Z,23.04
2023-03-22T00:36:08.097Z,23.03
2023-03-22T00:36:39.598Z,23.02
2023-03-22T00:37:11.003Z,23.07
2023-03-22T00:37:42.632Z,23.06
2023-03-22T00:38:14.044Z,23.06
2023-03-22T00:38:45.621Z,23.06
2023-03-22T00:39:17.007Z,23.08
2023-03-22T00:39:48.482Z,23.05
2023-03-22T00:40:19.959Z,23.07
2023-03-22T00:40:51.413Z,23.07
2023-03-22T00:41:22.888Z,23.06
2023-03-22T00:41:54.329Z,23.03
2023-03-22T00:42:25.766Z,23.03
2023-03-22T00:42:57.228Z,23.00
2023-03-22T00:43:28.707Z,23.01
2023-03-22T00:44:00.196Z,23.02
2023-03-22T00:44:31.648Z,23.05
2023-03-22T00:45:03.051Z,23.06
2023-03-22T00:45:34.514Z,23.03
2023-03-22T00:46:05.972Z,23.05
2023-03-22T00:46:37.477Z,23.07
2023-03-22T00:47:09.058Z,23.06
2023-03-22T00:47:40.572Z,23.03
2023-03-22T00:48:12.234Z,23.03
2023-03-22T00:48:43.756Z,23.05
2023-03-22T00:49:15.129Z,23.05
2023-03-22T00:49:46.542Z,23.03
2023-03-22T00:50:18.020Z,23.05
2023-03-22T00:50:49.423Z,23.03
2023-03-22T00:51:20.877Z,23.06
2023-03-22T00:51:52.368Z,23.06
2023-03-22T00:52:23.774Z,23.04
2023-03-22T00:52:55.291Z,23.06
2023-03-22T00:53:26.784Z,23.04
2023-03-22T00:53:58.356Z,23.05
2023-03-22T00:54:29.768Z,23.03
2023-03-22T00:55:01.346Z,23.04
2023-03-22T00:55:32.925Z,23.05
2023-03-22T00:56:04.507Z,23.05
2023-03-22T00:56:35.921Z,23.07
2023-03-22T00:57:07.380Z,23.08
2023-03-22T00:57:38.800Z,23.10
2023-03-22T00:58:10.326Z,23.08
2023-03-22T00:58:41.806Z,23.07
2023-03-22T00:59:13.242Z,23.08
2023-03-22T00:59:44.683Z,23.04
2023-03-22T01:00:16.172Z,23.04
2023-03-22T01:00:47.710Z,23.03
2023-03-22T01:01:19.175Z,23.03
2023-03-22T01:01:50.592Z,23.03
2023-03-22T01:02:21.976Z,23.06
2023-03-22T01:02:53.437Z,23.06
2023-03-22T01:03:24.978Z,23.05
2023-03-22T01:03:56.572Z,23.03
2023-03-22T01:04:27.984Z,23.02
2023-03-22T01:04:59.426Z,23.01
2023-03-22T01:05:30.920Z,23.05
2023-03-22T01:06:02.454Z,23.04
2023-03-22T01:06:33.943Z,23.06
2023-03-22T01:07:05.402Z,23.05
2023-03-22T01:07:37.043Z,23.05
2023-03-22T01:08:08.464Z,23.04
2023-03-22T01:08:39.998Z,23.06
2023-03-22T01:09:11.374Z,23.06
2023-03-22T01:09:42.800Z,23.04
2023-03-22T01:10:14.289Z,23.05
2023-03-22T01:10:45.712Z,23.02
2023-03-22T01:11:17.219Z,23.06
2023-03-22T01:11:48.652Z,23.02
2023-03-22T01:12:20.235Z,23.06
2023-03-22T01:12:51.701Z,23.07
2023-03-22T01:13:23.214Z,23.06
2023-03-22T01:13:54.757Z,23.04
2023-03-22T01:14:26.197Z,23.05
2023-03-22T01:14:57.600Z,23.06
2023-03-22T01:15:29.013Z,23.04
2023-03-22T01:16:00.899Z,23.04
2023-03-22T01:16:32.414Z,23.06
2023-03-22T01:17:03.908Z,23.04
2023-03-22T01:17:35.493Z,23.03
2023-03-22T01:18:06.912Z,22.99
2023-03-22T01:18:38.386Z,23.05
2023-03-22T01:19:09.801Z,23.02
2023-03-22T01:19:41.254Z,23.02
2023-03-22T01:20:12.669Z,23.05
2023-03-22T01:20:44.125Z,23.06
2023-03-22T01:21:15.620Z,23.06
2023-03-22T01:21:47.021Z,23.07
2023-03-22T01:22:18.454Z,23.08
2023-03-22T01:22:49.993Z,23.03
2023-03-22T01:23:21.433Z,23.02
2023-03-22T01:23:52.882Z,23.04
2023-03-22T01:24:24.285Z,23.04
2023-03-22T01:24:55.751Z,23.06
2023-03-22T01:25:27.186Z,23.07
2023-03-22T01:25:58.603Z,23.08
2023-03-22T01:26:30.084Z,23.11
2023-03-22T01:27:01.536Z,23.11
2023-03-22T01:27:33.045Z,23.12
2023-03-22T01:28:04.543Z,23.10
2023-03-22T01:28:36.042Z,23.07
2023-03-22T01:29:07.510Z,23.09
2023-03-22T01:29:38.957Z,23.09
2023-03-22T01:30:10.454Z,23.10
2023-03-22T01:30:42.361Z,23.07
2023-03-22T01:31:13.994Z,23.04
2023-03-22T01:31:45.433Z,23.04
2023-03-22T01:32:16.874Z,23.07
2023-03-22T01:32:48.372Z,23.08
2023-03-22T01:33:19.869Z,23.10
2023-03-22T01:33:51.406Z,23.11
2023-03-22T01:34:22.825Z,23.09
2023-03-22T01:34:54.412Z,23.05
2023-03-22T01:35:25.835Z,23.04
2023-03-22T01:35:57.308Z,23.07
2023-03-22T01:36:28.794Z,23.06
2023-03-22T01:37:00.230Z,23.06
2023-03-22T01:37:31.630Z,23.03
2023-03-22T01:38:03.133Z,23.01
2023-03-22T01:38:34.638Z,23.03
2023-03-22T01:39:06.053Z,23.01
2023-03-22T01:39:37.465Z,23.02
2023-03-22T01:40:08.899Z,23.04
2023-03-22T01:40:40.530Z,23.02
2023-03-22T01:41:12.174Z,23.03
2023-03-22T01:41:43.638Z,23.04
2023-03-22T01:42:15.136Z,23.08
2023-03-22T01:42:46.520Z,23.09
2023-03-22T01:43:17.963Z,23.07
2023-03-22T01:43:49.488Z,23.05
2023-03-22T01:44:21.004Z,23.06
2023-03-22T01:44:52.495Z,23.03
2023-03-22T01:45:23.952Z,23.04
2023-03-22T01:45:55.392Z,23.02
2023-03-22T01:46:26.879Z,23.03
2023-03-22T01:46:58.364Z,23.04
2023-03-22T01:47:29.758Z,23.04
2023-03-22T01:48:01.354Z,23.04
2023-03-22T01:48:32.793Z,23.04
2023-03-22T01:49:04.546Z,23.05
2023-03-22T01:49:36.116Z,23.04
2023-03-22T01:50:07.531Z,23.09
2023-03-22T01:50:39.170Z,23.06
2023-03-22T01:51:10.808Z,23.08
2023-03-22T01:51:43.762Z,23.08
2023-03-22T01:52:15.347Z,23.08
2023-03-22T01:52:46.822Z,23.09
2023-03-22T01:53:18.317Z,23.07
2023-03-22T01:53:49.724Z,23.03
2023-03-22T01:54:21.247Z,23.05
2023-03-22T01:54:52.750Z,23.04
2023-03-22T01:55:24.177Z,23.05
2023-03-22T01:55:55.735Z,23.05
2023-03-22T01:56:27.200Z,23.07
2023-03-22T01:56:58.731Z,23.05
2023-03-22T01:57:30.171Z,23.04
2023-03-22T01:58:01.744Z,23.08
2023-03-22T01:58:33.176Z,23.05
2023-03-22T01:59:04.921Z,23.07
2023-03-22T01:59:36.415Z,23.08
2023-03-22T02:00:07.945Z,23.13
2023-03-22T02:00:39.632Z,23.14
2023-03-22T02:01:11.312Z,23.13
2023-03-22T02:01:42.896Z,23.09
2023-03-22T02:02:14.395Z,23.08
2023-03-22T02:02:46.031Z,23.09
2023-03-22T02:03:17.492Z,23.09
2023-03-22T02:03:49.075Z,23.08
2023-03-22T02:04:20.549Z,23.09
2023-03-22T02:04:52.108Z,23.08
2023-03-22T02:05:23.521Z,23.09
2023-03-22T02:05:55.125Z,23.09
2023-03-22T02:06:26.557Z,23.09
2023-03-22T02:06:58.104Z,23.06
2023-03-22T02:07:29.491Z,23.05
2023-03-22T02:08:00.887Z,23.07
2023-03-22T02:08:32.448Z,23.08
2023-03-22T02:09:05.653Z,23.04
2023-03-22T02:09:37.178Z,23.04
2023-03-22T02:10:08.630Z,23.06
2023-03-22T02:10:40.267Z,23.02
2023-03-22T02:11:11.817Z,23.04
2023-03-22T02:11:43.285Z,23.05
2023-03-22T02:12:14.713Z,23.05
2023-03-22T02:12:46.130Z,23.05
2023-03-22T02:13:17.641Z,23.05
2023-03-22T02:13:49.090Z,23.05
2023-03-22T02:14:20.552Z,23.04
2023-03-22T02:14:51.979Z,23.04
2023-03-22T02:15:23.459Z,23.08
2023-03-22T02:15:54.881Z,23.07
2023-03-22T02:16:26.333Z,23.05
2023-03-22T02:16:57.763Z,23.07
2023-03-22T02:17:29.206Z,23.05
2023-03-22T02:18:00.619Z,23.03
2023-03-22T02:18:32.041Z,23.03
2023-03-22T02:19:03.472Z,23.04
2023-03-22T02:19:34.903Z,23.04
2023-03-22T02:20:06.406Z,23.06
2023-03-22T02:20:38.245Z,23.02
2023-03-22T02:21:09.947Z,23.06
2023-03-22T02:21:41.397Z,23.05
2023-03-22T02:22:12.804Z,23.05
2023-03-22T02:22:44.246Z,23.05
2023-03-22T02:23:15.671Z,23.06
2023-03-22T02:23:47.164Z,23.03
2023-03-22T02:24:18.579Z,23.05
2023-03-22T02:24:50.147Z,23.04
2023-03-22T02:25:21.549Z,23.05
2023-03-22T02:25:53.081Z,23.05
2023-03-22T02:26:24.501Z,23.06
2023-03-22T02:26:55.910Z,23.06
2023-03-22T02:27:27.452Z,23.08
2023-03-22T02:27:58.837Z,23.11
2023-03-22T02:28:30.344Z,23.06
2023-03-22T02:29:01.754Z,23.06
2023-03-22T02:29:33.185Z,23.08
2023-03-22T02:30:07.060Z,23.08
2023-03-22T02:30:38.836Z,23.10
2023-03-22T02:31:10.476Z,23.09
2023-03-22T02:31:41.914Z,23.10
2023-03-22T02:32:13.320Z,23.11
2023-03-22T02:32:44.741Z,23.08
2023-03-22T02:33:16.185Z,23.07
2023-03-22T02:33:47.639Z,23.10
2023-03-22T02:34:19.099Z,23.09
2023-03-22T02:34:50.596Z,23.10
2023-03-22T02:35:22.063Z,23.06
2023-03-22T02:35:53.630Z,23.06
2023-03-22T02:36:25.146Z,23.04
2023-03-22T02:36:56.644Z,23.06
2023-03-22T02:37:28.074Z,23.06
2023-03-22T02:37:59.473Z,23.06
2023-03-22T02:38:31.036Z,23.06
2023-03-22T02:39:02.545Z,23.07
2023-03-22T02:39:34.078Z,23.07
2023-03-22T02:40:05.478Z,23.07
2023-03-22T02:40:37.256Z,23.06
2023-03-22T02:41:08.863Z,23.09
2023-03-22T02:41:40.336Z,23.14
2023-03-22T02:42:11.744Z,23.10
2023-03-22T02:42:43.270Z,23.11
2023-03-22T02:43:14.670Z,23.11
2023-03-22T02:43:46.140Z,23.10
2023-03-22T02:44:17.547Z,23.10
2023-03-22T02:44:49.059Z,23.13
2023-03-22T02:45:20.507Z,23.11
2023-03-22T02:45:51.955Z,23.10
2023-03-22T02:46:23.419Z,23.08
2023-03-22T02:46:54.994Z,23.10
2023-03-22T02:47:26.470Z,23.07
2023-03-22T02:47:57.911Z,23.09
2023-03-22T02:48:29.406Z,23.12
2023-03-22T02:49:00.842Z,23.10
2023-03-22T02:49:32.260Z,23.13
2023-03-22T02:50:03.678Z,23.09
2023-03-22T02:50:35.095Z,23.08
2023-03-22T02:51:06.702Z,23.08
2023-03-22T02:51:38.150Z,23.12
2023-03-22T02:52:09.686Z,23.08
2023-03-22T02:52:41.072Z,23.07
2023-03-22T02:53:12.620Z,23.07
2023-03-22T02:53:44.026Z,23.09
2023-03-22T02:54:15.436Z,23.11
2023-03-22T02:54:47.021Z,23.10
2023-03-22T02:55:18.463Z,23.06
2023-03-22T02:55:50.030Z,23.06
2023-03-22T02:56:21.449Z,23.09
2023-03-22T02:56:53.040Z,23.08
2023-03-22T02:57:24.548Z,23.09
2023-03-22T02:57:56.052Z,23.10
2023-03-22T02:58:27.493Z,23.09
2023-03-22T02:58:59.030Z,23.10
2023-03-22T02:59:30.478Z,23.09
2023-03-22T03:00:02.027Z,23.10
2023-03-22T03:00:33.514Z,23.08
2023-03-22T03:01:05.114Z,23.06
2023-03-22T03:01:36.573Z,23.09
2023-03-22T03:02:08.166Z,23.10
2023-03-22T03:02:39.627Z,23.12
2023-03-22T03:03:11.070Z,23.10
2023-03-22T03:03:42.551Z,23.13
2023-03-22T03:04:13.964Z,23.11
2023-03-22T03:04:45.397Z,23.10
2023-03-22T03:05:16.823Z,23.13
2023-03-22T03:05:48.245Z,23.10
2023-03-22T03:06:19.667Z,23.09
2023-03-22T03:06:51.118Z,23.09
2023-03-22T03:07:22.623Z,23.05
2023-03-22T03:07:54.054Z,23.08
2023-03-22T03:08:25.565Z,23.10
2023-03-22T03:08:57.020Z,23.11
2023-03-22T03:09:28.502Z,23.08
2023-03-22T03:09:59.874Z,23.12
2023-03-22T03:10:31.480Z,23.12
2023-03-22T03:11:02.910Z,23.12
2023-03-22T03:11:34.284Z,23.12
2023-03-22T03:12:05.773Z,23.11
2023-03-22T03:12:40.318Z,23.10
2023-03-22T03:13:11.883Z,23.12
2023-03-22T03:13:43.297Z,23.13
2023-03-22T03:14:14.838Z,23.11
2023-03-22T03:14:46.243Z,23.15
2023-03-22T03:15:17.640Z,23.17
2023-03-22T03:15:49.087Z,23.14
2023-03-22T03:16:20.705Z,23.09
2023-03-22T03:16:52.200Z,23.10
2023-03-22T03:17:23.639Z,23.08
2023-03-22T03:17:55.059Z,23.10
2023-03-22T03:18:26.480Z,23.12
2023-03-22T03:18:57.924Z,23.11
2023-03-22T03:19:29.489Z,23.13
2023-03-22T03:20:00.913Z,23.13
2023-03-22T03:20:32.377Z,23.10
2023-03-22T03:21:03.825Z,23.11
2023-03-22T03:21:35.212Z,23.07
2023-03-22T03:22:06.763Z,23.11
2023-03-22T03:22:38.270Z,23.12
2023-03-22T03:23:09.638Z,23.13
2023-03-22T03:23:41.023Z,23.14
2023-03-22T03:24:12.538Z,23.11
2023-03-22T03:24:44.030Z,23.12
2023-03-22T03:25:15.559Z,23.15
2023-03-22T03:25:47.011Z,23.10
2023-03-22T03:26:18.526Z,23.14
2023-03-22T03:26:49.937Z,23.11
2023-03-22T03:27:21.467Z,23.11
2023-03-22T03:27:52.876Z,23.10
2023-03-22T03:28:24.368Z,23.10
2023-03-22T03:28:55.821Z,23.14
2023-03-22T03:29:27.229Z,23.11
2023-03-22T03:29:58.685Z,23.13
2023-03-22T03:30:30.103Z,23.10
2023-03-22T03:31:01.515Z,23.09
2023-03-22T03:31:32.964Z,23.13
2023-03-22T03:32:04.451Z,23.11
2023-03-22T03:32:35.874Z,23.09
2023-03-22T03:33:07.302Z,23.10
2023-03-22T03:33:38.883Z,23.10
2023-03-22T03:34:10.229Z,23.11
2023-03-22T03:34:41.763Z,23.10
2023-03-22T03:35:13.275Z,23.10
2023-03-22T03:35:44.703Z,23.11
2023-03-22T03:36:16.208Z,23.10
2023-03-22T03:36:47.646Z,23.09
2023-03-22T03:37:19.147Z,23.10
2023-03-22T03:37:50.547Z,23.09
2023-03-22T03:38:22.055Z,23.06
2023-03-22T03:38:53.503Z,23.09
2023-03-22T03:39:24.935Z,23.11
2023-03-22T03:39:56.354Z,23.12
2023-03-22T03:40:27.841Z,23.08
2023-03-22T03:40:59.301Z,23.10
2023-03-22T03:41:30.792Z,23.08
2023-03-22T03:42:02.219Z,23.09
2023-03-22T03:42:33.630Z,23.08
2023-03-22T03:43:05.052Z,23.07
2023-03-22T03:43:36.513Z,23.08
2023-03-22T03:44:07.985Z,23.09
2023-03-22T03:44:39.479Z,23.11
2023-03-22T03:45:10.893Z,23.11
2023-03-22T03:45:42.430Z,23.13
2023-03-22T03:46:13.899Z,23.09
2023-03-22T03:46:45.372Z,23.13
2023-03-22T03:47:16.785Z,23.13
2023-03-22T03:47:48.270Z,23.13
2023-03-22T03:48:19.841Z,23.13
2023-03-22T03:48:51.442Z,23.13
2023-03-22T03:49:22.882Z,23.14
2023-03-22T03:49:54.278Z,23.14
2023-03-22T03:50:25.964Z,23.10
2023-03-22T03:50:57.606Z,23.11
2023-03-22T03:51:29.067Z,23.13
2023-03-22T03:52:00.466Z,23.11
2023-03-22T03:52:32.084Z,23.09
2023-03-22T03:53:03.543Z,23.10
2023-03-22T03:53:35.177Z,23.09
2023-03-22T03:54:06.597Z,23.10
2023-03-22T03:54:38.153Z,23.09
2023-03-22T03:55:09.702Z,23.09
2023-03-22T03:55:41.251Z,23.09
2023-03-22T03:56:12.681Z,23.10
2023-03-22T03:56:44.200Z,23.11
2023-03-22T03:57:15.627Z,23.10
2023-03-22T03:57:47.097Z,23.09
2023-03-22T03:58:18.525Z,23.10
2023-03-22T03:58:50.164Z,23.08
2023-03-22T03:59:21.585Z,23.09
2023-03-22T03:59:53.008Z,23.09
2023-03-22T04:00:24.615Z,23.08
2023-03-22T04:00:56.036Z,23.09
2023-03-22T04:01:27.457Z,23.11
2023-03-22T04:01:58.906Z,23.08
2023-03-22T04:02:30.412Z,23.14
2023-03-22T04:03:01.871Z,23.10
2023-03-22T04:03:33.303Z,23.13
2023-03-22T04:04:04.822Z,23.09
2023-03-22T04:04:36.394Z,23.11
2023-03-22T04:05:08.030Z,23.10
2023-03-22T04:05:39.469Z,23.09
2023-03-22T04:06:10.872Z,23.09
2023-03-22T04:06:42.275Z,23.13
2023-03-22T04:07:13.732Z,23.15
2023-03-22T04:07:45.237Z,23.14
2023-03-22T04:08:16.712Z,23.13
2023-03-22T04:08:48.157Z,23.13
2023-03-22T04:09:19.722Z,23.12
2023-03-22T04:09:51.185Z,23.10
2023-03-22T04:10:22.696Z,23.06
2023-03-22T04:10:54.140Z,23.06
2023-03-22T04:11:25.662Z,23.06
2023-03-22T04:11:57.106Z,23.06
2023-03-22T04:12:28.522Z,23.08
2023-03-22T04:13:00.118Z,23.09
2023-03-22T04:13:31.517Z,23.08
2023-03-22T04:14:03.016Z,23.08
2023-03-22T04:14:34.500Z,23.07
2023-03-22T04:15:06.022Z,23.08
2023-03-22T04:15:37.449Z,23.11
2023-03-22T04:16:08.931Z,23.12
2023-03-22T04:16:43.402Z,23.09
2023-03-22T04:17:14.914Z,23.08
2023-03-22T04:17:46.331Z,23.12
2023-03-22T04:18:17.712Z,23.09
2023-03-22T04:18:51.836Z,23.07
2023-03-22T04:19:23.253Z,23.09
2023-03-22T04:19:54.806Z,23.08
2023-03-22T04:20:26.359Z,23.07
2023-03-22T04:20:57.772Z,23.10
2023-03-22T04:21:29.265Z,23.07
2023-03-22T04:22:00.722Z,23.08
2023-03-22T04:22:32.276Z,23.09
2023-03-22T04:23:03.725Z,23.09
2023-03-22T04:23:35.299Z,23.09
2023-03-22T04:24:06.721Z,23.09
2023-03-22T04:24:38.145Z,23.06
2023-03-22T04:25:09.923Z,23.05
2023-03-22T04:25:41.399Z,23.05
2023-03-22T04:26:12.773Z,23.08
2023-03-22T04:26:44.182Z,23.09
2023-03-22T04:27:15.698Z,23.10
2023-03-22T04:27:47.110Z,23.08
2023-03-22T04:28:18.606Z,23.10
2023-03-22T04:28:50.039Z,23.13
2023-03-22T04:29:21.492Z,23.10
2023-03-22T04:29:52.948Z,23.15
2023-03-22T04:30:24.413Z,23.13
2023-03-22T04:30:55.835Z,23.15
2023-03-22T04:31:27.287Z,23.13
2023-03-22T04:31:58.795Z,23.08
2023-03-22T04:32:30.173Z,23.10
2023-03-22T04:33:01.615Z,23.15
2023-03-22T04:33:33.068Z,23.18
2023-03-22T04:34:04.493Z,23.16
2023-03-22T04:34:36.142Z,23.15
2023-03-22T04:35:07.562Z,23.15
2023-03-22T04:35:39.119Z,23.15
2023-03-22T04:36:10.634Z,23.14
2023-03-22T04:36:42.102Z,23.13
2023-03-22T04:37:13.477Z,23.12
2023-03-22T04:37:44.992Z,23.10
2023-03-22T04:38:16.468Z,23.09
2023-03-22T04:38:48.040Z,23.10
2023-03-22T04:39:19.449Z,23.09
2023-03-22T04:39:50.856Z,23.10
2023-03-22T04:40:22.387Z,23.08
2023-03-22T04:40:53.903Z,23.06
2023-03-22T04:41:25.427Z,23.05
2023-03-22T04:41:56.933Z,23.05
2023-03-22T04:42:28.457Z,23.09
2023-03-22T04:42:59.933Z,23.09
2023-03-22T04:43:31.471Z,23.10
2023-03-22T04:44:02.867Z,23.13
2023-03-22T04:44:34.472Z,23.11
2023-03-22T04:45:05.891Z,23.08
2023-03-22T04:45:37.301Z,23.09
2023-03-22T04:46:08.841Z,23.09
2023-03-22T04:46:40.299Z,23.06
2023-03-22T04:47:14.710Z,23.10
2023-03-22T04:47:46.161Z,23.09
2023-03-22T04:48:17.647Z,23.12
2023-03-22T04:48:49.119Z,23.13
2023-03-22T04:49:20.519Z,23.10
2023-03-22T04:49:51.943Z,23.13
2023-03-22T04:50:23.404Z,23.16
2023-03-22T04:50:54.869Z,23.14
2023-03-22T04:51:26.339Z,23.13
2023-03-22T04:51:57.825Z,23.13
2023-03-22T04:52:29.258Z,23.12
2023-03-22T04:53:00.640Z,23.16
2023-03-22T04:53:32.139Z,23.13
2023-03-22T04:54:03.565Z,23.13
2023-03-22T04:54:35.143Z,23.16
2023-03-22T04:55:06.546Z,23.14
2023-03-22T04:55:38.038Z,23.11
2023-03-22T04:56:09.477Z,23.12
2023-03-22T04:56:41.019Z,23.13
2023-03-22T04:57:12.525Z,23.09
2023-03-22T04:57:43.987Z,23.11
2023-03-22T04:58:15.410Z,23.08
2023-03-22T04:58:46.837Z,23.07
2023-03-22T04:59:18.233Z,23.06
2023-03-22T04:59:49.655Z,23.06
2023-03-22T05:00:21.074Z,23.09
2023-03-22T05:00:52.536Z,23.09
2023-03-22T05:01:24.018Z,23.06
2023-03-22T05:01:55.611Z,23.09
2023-03-22T05:02:27.076Z,23.09
2023-03-22T05:02:58.603Z,23.11
2023-03-22T05:03:30.078Z,23.11
2023-03-22T05:04:01.497Z,23.13
2023-03-22T05:04:32.922Z,23.10
2023-03-22T05:05:04.413Z,23.11
2023-03-22T05:05:35.844Z,23.10
2023-03-22T05:06:07.263Z,23.09
2023-03-22T05:06:38.728Z,23.11
2023-03-22T05:07:10.202Z,23.09
2023-03-22T05:07:41.689Z,23.10
2023-03-22T05:08:13.089Z,23.10
2023-03-22T05:08:44.548Z,23.13
2023-03-22T05:09:15.987Z,23.10
2023-03-22T05:09:47.404Z,23.10
2023-03-22T05:10:18.828Z,23.14
2023-03-22T05:10:50.258Z,23.07
2023-03-22T05:11:21.691Z,23.09
2023-03-22T05:11:53.127Z,23.05
2023-03-22T05:12:24.590Z,23.08
2023-03-22T05:12:55.991Z,23.09
2023-03-22T05:13:27.440Z,23.11
2023-03-22T05:13:58.934Z,23.11
2023-03-22T05:14:30.405Z,23.10
2023-03-22T05:15:01.973Z,23.03
2023-03-22T05:15:33.439Z,23.03
2023-03-22T05:16:04.980Z,23.04
2023-03-22T05:16:36.431Z,23.04
2023-03-22T05:17:07.792Z,23.05
2023-03-22T05:17:39.395Z,23.05
2023-03-22T05:18:10.817Z,23.03
2023-03-22T05:18:42.439Z,23.03
2023-03-22T05:19:14.029Z,23.06
2023-03-22T05:19:45.600Z,23.05
2023-03-22T05:20:17.156Z,23.05
2023-03-22T05:20:48.644Z,23.05
2023-03-22T05:21:20.073Z,23.02
2023-03-22T05:21:51.575Z,23.05
2023-03-22T05:22:22.984Z,23.03
2023-03-22T05:22:54.635Z,23.06
2023-03-22T05:23:26.014Z,23.07
2023-03-22T05:23:57.557Z,23.08
2023-03-22T05:24:29.008Z,23.06
2023-03-22T05:25:00.543Z,23.05
2023-03-22T05:25:32.028Z,23.05
2023-03-22T05:26:03.433Z,23.06
2023-03-22T05:26:34.853Z,23.01
2023-03-22T05:27:06.255Z,23.00
2023-03-22T05:27:37.666Z,23.01
2023-03-22T05:28:09.124Z,23.05
2023-03-22T05:28:40.524Z,23.07
2023-03-22T05:29:11.959Z,23.05
2023-03-22T05:29:46.212Z,23.05
2023-03-22T05:30:17.687Z,23.02
2023-03-22T05:30:49.138Z,23.02
2023-03-22T05:31:20.584Z,23.02
2023-03-22T05:31:52.189Z,23.06
2023-03-22T05:32:23.609Z,23.09
2023-03-22T05:32:55.142Z,23.05
2023-03-22T05:33:26.593Z,23.07
2023-03-22T05:33:58.110Z,23.01
2023-03-22T05:34:29.529Z,23.05
2023-03-22T05:35:01.084Z,23.08
2023-03-22T05:35:32.530Z,23.06
2023-03-22T05:36:04.115Z,23.08
2023-03-22T05:36:35.565Z,23.05
2023-03-22T05:37:07.032Z,23.04
2023-03-22T05:37:38.488Z,23.03
2023-03-22T05:38:09.891Z,23.03
2023-03-22T05:38:41.341Z,23.05
2023-03-22T05:39:12.932Z,23.05
2023-03-22T05:39:44.383Z,23.06
2023-03-22T05:40:15.821Z,23.10
2023-03-22T05:40:47.272Z,23.08
2023-03-22T05:41:18.753Z,23.09
2023-03-22T05:41:50.269Z,23.10
2023-03-22T05:42:21.670Z,23.11
2023-03-22T05:42:53.145Z,23.05
2023-03-22T05:43:24.822Z,23.09
2023-03-22T05:43:56.273Z,23.08
2023-03-22T05:44:27.716Z,23.07
2023-03-22T05:44:59.126Z,23.08
2023-03-22T05:45:30.679Z,23.07
2023-03-22T05:46:02.117Z,23.08
2023-03-22T05:46:33.754Z,23.04
2023-03-22T05:47:05.336Z,23.07
2023-03-22T05:47:36.802Z,23.05
2023-03-22T05:48:08.340Z,23.04
2023-03-22T05:48:40.091Z,23.04
2023-03-22T05:49:12.244Z,23.02
2023-03-22T05:49:43.855Z,23.05
2023-03-22T05:50:15.289Z,23.04
2023-03-22T05:50:46.757Z,23.05
2023-03-22T05:51:18.164Z,23.08
2023-03-22T05:51:49.609Z,23.06
2023-03-22T05:52:21.066Z,23.08
2023-03-22T05:52:52.491Z,23.06
2023-03-22T05:53:24.166Z,23.08
2023-03-22T05:53:55.634Z,23.05
2023-03-22T05:54:27.058Z,23.04
2023-03-22T05:54:58.496Z,23.07
2023-03-22T05:55:29.931Z,23.04
2023-03-22T05:56:01.387Z,23.05
2023-03-22T05:56:32.812Z,23.08
2023-03-22T05:57:04.267Z,23.04
2023-03-22T05:57:35.679Z,23.07
2023-03-22T05:58:07.451Z,23.09
2023-03-22T05:58:38.884Z,23.08
2023-03-22T05:59:10.341Z,23.03
2023-03-22T05:59:41.741Z,23.03
2023-03-22T06:00:13.524Z,23.03
2023-03-22T06:00:44.968Z,23.09
2023-03-22T06:01:16.529Z,23.06
2023-03-22T06:01:48.073Z,23.04
2023-03-22T06:02:19.644Z,23.02
2023-03-22T06:02:51.144Z,23.01
2023-03-22T06:03:22.728Z,23.00
2023-03-22T06:03:54.246Z,23.02
2023-03-22T06:04:25.643Z,23.05
2023-03-22T06:04:57.085Z,23.01
2023-03-22T06:05:28.585Z,23.02
2023-03-22T06:05:59.972Z,23.03
2023-03-22T06:06:31.527Z,23.04
2023-03-22T06:07:02.983Z,23.06
2023-03-22T06:07:34.418Z,23.04
2023-03-22T06:08:05.944Z,23.04
2023-03-22T06:08:37.433Z,23.06
2023-03-22T06:09:16.777Z,23.08
2023-03-22T06:09:49.174Z,23.07
2023-03-22T06:10:20.583Z,23.04
2023-03-22T06:10:52.001Z,23.06
2023-03-22T06:11:23.405Z,23.07
2023-03-22T06:11:54.896Z,23.06
2023-03-22T06:12:28.810Z,23.08
2023-03-22T06:13:01.462Z,23.06
2023-03-22T06:13:35.287Z,23.06
2023-03-22T06:14:06.750Z,23.06
2023-03-22T06:14:38.156Z,23.01
2023-03-22T06:15:09.570Z,23.05
2023-03-22T06:15:41.095Z,23.03
2023-03-22T06:16:12.532Z,23.06
2023-03-22T06:16:44.148Z,23.03
2023-03-22T06:17:15.672Z,23.03
2023-03-22T06:17:47.148Z,23.06
2023-03-22T06:18:20.265Z,23.02
2023-03-22T06:18:51.695Z,23.04
2023-03-22T06:19:23.252Z,23.02
2023-03-22T06:19:54.637Z,23.01
2023-03-22T06:20:26.062Z,23.03
2023-03-22T06:20:57.564Z,23.04
2023-03-22T06:21:28.995Z,23.03
2023-03-22T06:22:00.493Z,23.00
2023-03-22T06:22:32.010Z,23.04
2023-03-22T06:23:03.524Z,23.01
2023-03-22T06:23:34.978Z,22.98
2023-03-22T06:24:06.474Z,23.02
2023-03-22T06:24:37.918Z,23.02
2023-03-22T06:25:09.319Z,23.04
2023-03-22T06:25:40.740Z,23.04
2023-03-22T06:26:12.177Z,23.02
2023-03-22T06:26:43.664Z,23.02
2023-03-22T06:27:15.288Z,23.03
2023-03-22T06:27:46.765Z,23.05
2023-03-22T06:28:18.431Z,23.04
2023-03-22T06:28:49.852Z,23.06
2023-03-22T06:29:21.306Z,23.05
2023-03-22T06:29:52.747Z,23.06
2023-03-22T06:30:24.219Z,23.07
2023-03-22T06:30:55.722Z,23.05
2023-03-22T06:31:27.325Z,23.05
2023-03-22T06:31:58.793Z,23.03
2023-03-22T06:32:30.233Z,23.02
2023-03-22T06:33:01.678Z,23.04
2023-03-22T06:33:33.095Z,23.08
2023-03-22T06:34:04.508Z,23.01
2023-03-22T06:34:36.039Z,23.04
2023-03-22T06:35:07.466Z,23.04
2023-03-22T06:35:38.992Z,23.04
2023-03-22T06:36:10.462Z,23.02
2023-03-22T06:36:41.990Z,23.03
2023-03-22T06:37:13.420Z,23.03
2023-03-22T06:37:44.826Z,23.01
2023-03-22T06:38:16.561Z,23.00
2023-03-22T06:38:48.031Z,23.00
2023-03-22T06:39:19.489Z,22.98
2023-03-22T06:39:50.992Z,23.00
2023-03-22T06:40:22.512Z,23.01
2023-03-22T06:40:54.016Z,22.99
2023-03-22T06:41:25.488Z,22.99
2023-03-22T06:41:56.895Z,23.00
2023-03-22T06:42:28.371Z,22.98
2023-03-22T06:43:02.925Z,23.03
2023-03-22T06:43:36.093Z,23.04
2023-03-22T06:44:07.694Z,23.06
2023-03-22T06:44:39.149Z,23.03
2023-03-22T06:45:13.541Z,23.04
2023-03-22T06:45:44.976Z,23.04
2023-03-22T06:46:16.447Z,23.06